EFHKESSA

Guest
Details From EFHK - Helsinki Vantaa
To ESSA - Stockholm Arlanda
Flight Number -
Tags decoded
Created
Modified
Stats Distance 215 nm / 399 km
Max Altitude 0 ft / 0 m
Waypoints 3
Social Downloads 1
Likes 0
Share VATSIM

Download

Looking for another format? Having issues loading an existing format? Contact us
Advertisement - Login to hide

Notes

Requested: EFHK ADIVO XILAN ESSA Unmatched points: ADIVO

Route

EFHK XILAN ESSA

ID Type Via Altitude Latitude Longitude Leg Dist Tot Dist Heading (true) Name
O EFHK APT - 0 ft / 0 m 60.32057˚ 24.95267˚ - 0 nm - Helsinki Vantaa
XILAN FIX - 0 ft / 0 m 59.65931˚ 19.07606˚ 180 nm 180 nm 260° / 255° -
O ESSA APT - 0 ft / 0 m 59.65014˚ 17.94363˚ 34 nm 215 nm 270° / 269° Stockholm Arlanda

Altitude Profile

Advertisement - Login to hide

Weather


0- 5 10 15 20 25 30 35+ Temperature / ° C

Clouds and Precipitation
Forecast for 2018-05-27 00:00 UTC. Updated 4 hours ago

Ground ~20,000 ft ~40,000 ft Winds

EFHK

Details ICAO EFHK (HEL)
Name Helsinki Vantaa
Region Finland
Timezone Europe/Helsinki (UTC+3.0)
Stats Elevation 179 ft / 55 m (AMSL)
Location 60.320569° 24.952668°
Runways 3
Magnetic Variation 9.024° E

METAR

EFHK 270320Z 36008KT CAVOK 14/05 Q1026 NOSIG

Decode

TAF

TAF EFHK 270222Z 2703/2803 35009KT CAVOK= TAF EFJY 270222Z 2703/2803 33007KT CAVOK

Decode

Departure Runways

ID Width Length Bearing (true) Bearing (mag) Surface Threshold Offset Overrun Length
04L 197 ft / 60 m 9,817 ft / 2,992 m 47.43° 38.41° Asphalt 800 ft / 244 m 0 ft / 0 m
04R 197 ft / 60 m 10,472 ft / 3,192 m 47.46° 38.44° Asphalt 262 ft / 80 m 0 ft / 0 m
15 197 ft / 60 m 9,497 ft / 2,895 m 153.08° 144.06° Asphalt 0 ft / 0 m 198 ft / 60 m
22L 197 ft / 60 m 10,472 ft / 3,192 m 227.50° 218.48° Asphalt 0 ft / 0 m 197 ft / 60 m
22R 197 ft / 60 m 9,817 ft / 2,992 m 227.46° 218.44° Asphalt 912 ft / 278 m 0 ft / 0 m
33 197 ft / 60 m 9,497 ft / 2,895 m 333.10° 324.08° Asphalt 0 ft / 0 m 197 ft / 60 m

ESSA

Details ICAO ESSA (ARN)
Name Stockholm Arlanda
Region Sweden
Timezone Europe/Stockholm (UTC+2.0)
Stats Elevation 137 ft / 42 m (AMSL)
Location 59.650140° 17.943628°
Runways 3
Magnetic Variation 6.173° E

METAR

ESSA 270320Z 02007KT CAVOK 11/07 Q1030 NOSIG

Decode

TAF

TAF ESSA 262330Z 2700/2724 02008KT CAVOK

Decode

Destination Runways

ID Width Length Bearing (true) Bearing (mag) Surface Threshold Offset Overrun Length
01L 148 ft / 45 m 10,812 ft / 3,296 m 10.35° 4.18° Concrete 0 ft / 0 m 0 ft / 0 m
01R 148 ft / 45 m 8,188 ft / 2,496 m 10.38° 4.21° Asphalt 0 ft / 0 m 0 ft / 0 m
08 148 ft / 45 m 8,178 ft / 2,493 m 75.83° 69.66° Concrete 0 ft / 0 m 0 ft / 0 m
19L 148 ft / 45 m 8,188 ft / 2,496 m 190.39° 184.22° Asphalt 0 ft / 0 m 0 ft / 0 m
19R 148 ft / 45 m 10,812 ft / 3,296 m 190.36° 184.19° Concrete 0 ft / 0 m 0 ft / 0 m
26 148 ft / 45 m 8,178 ft / 2,493 m 255.87° 249.70° Concrete 0 ft / 0 m 0 ft / 0 m

Approach Navaids

Runway Type Ident Frequency Range Bearing (true) Bearing (mag) Slope Elevation
01L Localiser SSA 109.90 MHz 18 nm / 33 km 10.36° 4.18° - 137 ft / 42 m (AMSL)
01L Glidescope SSA 109.90 MHz 10 nm / 19 km 10.36° 4.18° 3.00° 137 ft / 42 m (AMSL)
01R Localiser TSA 109.35 MHz 18 nm / 33 km 10.40° 4.23° - 137 ft / 42 m (AMSL)
01R Glidescope TSA 109.35 MHz 10 nm / 19 km 10.39° 4.21° 3.00° 137 ft / 42 m (AMSL)
08 Localiser WSA 109.55 MHz 18 nm / 33 km 75.83° 69.66° - 137 ft / 42 m (AMSL)
19L Localiser USA 111.35 MHz 18 nm / 33 km 190.38° 184.21° - 137 ft / 42 m (AMSL)
19L Glidescope USA 111.35 MHz 10 nm / 19 km 190.39° 184.21° 3.00° 137 ft / 42 m (AMSL)
19R Localiser NSA 110.70 MHz 18 nm / 33 km 190.34° 184.17° - 137 ft / 42 m (AMSL)
19R Glidescope NSA 110.70 MHz 10 nm / 19 km 190.36° 184.18° 3.00° 137 ft / 42 m (AMSL)
26 Localiser ESA 110.10 MHz 18 nm / 33 km 255.86° 249.69° - 121 ft / 37 m (AMSL)
26 Glidescope ESA 110.10 MHz 10 nm / 19 km 255.85° 249.68° 3.00° 137 ft / 42 m (AMSL)

Popular Alternatives